Flight Track Log - Related Links

Times and Time Zones

All times are in EDT time to prevent confusion due to time zone crossing. See the GGN7281 flight status page for this flight to view local times or setup timezone preferences in your user account.


Time Position Orientation Groundspeed Altitude Reporting Facility
EDT Latitude Longitude Course Direction KTS MPH feet Rate Location/Type
Wed 08:01:02 PM 43.1222 -77.6847 272° West 146 168 1,100  Level Cleveland Center
Wed 08:01:38 PM 43.1228 -77.7131 272° West 126 145 2,400 1,800 Climbing Cleveland Center
Wed 08:03:02 PM 43.1328 -77.7753 282° West 137 158 4,700 1,792 Climbing Cleveland Center
Wed 08:04:02 PM 43.1358 -77.8236 275° West 137 158 6,700 2,050 Climbing Cleveland Center
Wed 08:05:02 PM 43.1433 -77.8717 282° West 137 158 8,800 1,700 Climbing Cleveland Center
Wed 08:06:02 PM 43.1486 -77.9225 278° West 137 158 10,100 1,000 Climbing Cleveland Center
Wed 08:07:02 PM 43.1586 -77.9906 281° West 161 185 10,800 1,000 Climbing Cleveland Center
Wed 08:08:02 PM 43.1642 -78.0614 276° West 179 206 12,100 650 Climbing Cleveland Center
Wed 08:09:02 PM 43.1742 -78.1350 281° West 190 219 12,100  Level Cleveland Center
Wed 08:10:02 PM 43.1819 -78.2086 278° West 195 224 12,100  Level Cleveland Center
Wed 08:11:02 PM 43.1897 -78.2769 279° West 195 224 12,100  Level Cleveland Center
Wed 08:12:02 PM 43.1972 -78.3419 279° West 195 224 12,100 -50 Level Cleveland Center
Wed 08:13:02 PM 43.2022 -78.3903 278° West 165 190 12,000 -50 Descending Cleveland Center
Wed 08:14:02 PM 43.2053 -78.4414 275° West 147 169 12,000  Level Cleveland Center
Wed 08:15:02 PM 43.2103 -78.4897 278° West 141 162 12,000  Level Cleveland Center
Wed 08:16:02 PM 43.2153 -78.5408 278° West 141 162 12,000  Level Cleveland Center
Wed 08:17:02 PM 43.2225 -78.5919 281° West 141 162 12,000  Level Cleveland Center
Wed 08:18:02 PM 43.2275 -78.6458 277° West 141 162 12,000  Level Cleveland Center
Wed 08:19:02 PM 43.2347 -78.6969 281° West 141 162 12,000  Level Cleveland Center
Wed 08:20:02 PM 43.2397 -78.7481 278° West 141 162 12,000  Level Cleveland Center
Wed 08:21:03 PM 43.2447 -78.7992 278° West 141 162 12,000  Level Cleveland Center
Wed 08:22:02 PM 43.2517 -78.8475 281° West 141 162 12,000  Level Cleveland Center
Wed 08:23:02 PM 43.2567 -78.8958 278° West 141 162 12,000  Level Cleveland Center
Wed 08:23:42 PM 43.2500 -78.9000 204° Southwest 130 150 12,000  Level Toronto Center
Wed 08:24:42 PM 43.2500 -78.9667 270° West 130 150 12,000  Level Toronto Center
Wed 08:25:42 PM 43.2667 -79.0167 295° West 140 161 12,000  Level Toronto Center
Wed 08:26:42 PM 43.2667 -79.0667 270° West 140 161 12,000  Level Toronto Center
Wed 08:27:42 PM 43.2667 -79.1333 270° West 140 161 12,000  Level Toronto Center
Wed 08:28:42 PM 43.2667 -79.1833 270° West 140 161 12,000  Level Toronto Center
Wed 08:29:42 PM 43.2167 -79.1500 154° Southeast 150 173 12,000 -50 Level Toronto Center
Wed 08:30:42 PM 43.1833 -79.1333 160° South 170 196 11,900 -300 Descending Toronto Center
Wed 08:31:42 PM 43.1500 -79.1500 200° South 140 161 11,400 -800 Descending Toronto Center
Wed 08:32:42 PM 43.1500 -79.2000 270° West 150 173 10,300 -1,350 Descending Toronto Center
Wed 08:33:42 PM 43.1500 -79.2667 270° West 160 184 8,700 -1,500 Descending Toronto Center
Wed 08:34:42 PM 43.2000 -79.3167 324° Northwest 190 219 7,300 -850 Descending Toronto Center
Wed 08:35:42 PM 43.2500 -79.3167 360° North 200 230 7,000 -100 Descending Toronto Center
Wed 08:36:42 PM 43.3000 -79.3333 346° North 190 219 7,100 50 Climbing Toronto Center
Wed 08:37:42 PM 43.3500 -79.3167 14° North 210 242 7,100 -500 Level Toronto Center
Wed 08:38:42 PM 43.4167 -79.2833 20° North 200 230 6,100 -1,150 Descending Toronto Center
Wed 08:39:42 PM 43.4500 -79.3167 324° Northwest 170 196 4,800 -1,300 Descending Toronto Center
Wed 08:40:42 PM 43.4667 -79.3500 305° West 150 173 3,500 -850 Descending Toronto Center
Wed 08:41:42 PM 43.5000 -79.4000 313° West 150 173 3,100 -200 Descending Toronto Center
Wed 08:42:42 PM 43.5333 -79.4500 313° West 150 173 3,100  Level Toronto Center
Wed 08:43:42 PM 43.5500 -79.4667 324° Northwest 130 150 3,100 -150 Level Toronto Center
Wed 08:44:42 PM 43.5833 -79.5167 313° West 130 150 2,800 -550 Descending Toronto Center
Wed 08:45:42 PM 43.6167 -79.5333 340° North 130 150 2,000 -750 Descending Toronto Center
Wed 08:46:42 PM 43.6333 -79.5833 295° West 130 150 1,300 -700 Descending Toronto Center
Wed 08:47:42 PM 43.6667 -79.6167 324° Northwest 110 127 600 -350 Descending Toronto Center
Wed 08:48:42 PM 43.6667 -79.6333 270° West 70 81 600  Level Toronto Center

Login

Don't have an account? Register now (free) for customized features, flight alerts, and more!